• vieta
  • image
  • image
  • image
mod_vvisit_countermod_vvisit_countermod_vvisit_countermod_vvisit_countermod_vvisit_countermod_vvisit_counter
mod_vvisit_counterŠiandien58
mod_vvisit_counterVakar512
mod_vvisit_counterŠią savaitę570
mod_vvisit_counterPraėjusią savaitę4355
mod_vvisit_counterŠį mėnesį13041
mod_vvisit_counterPraėjusį mėnesį21340
mod_vvisit_counterViso778431

Mes turime: 12 svečius, 3 bots online
Jūsų IP: 54.224.102.26
 , 
Šiandien: Lap 21, 2017
Oro uostas / Informacija keleiviams / Taisyklės / Pasienio kontrolė

Pasienio kontrolė

Šiame skyriuje Jums pateikiame naudingą nuorodą į Valstybės sienos apsaugos tarnybos (VSAT) internetinę svetainę, kurioje rasite aktualios informacijos, tokios kaip: bendroji informacija, ką reikia žinoti keliaujant su vaiku, asmens tapatybės kortelės, vizos ir kitą.

Minėta informaciją rasite čia: Valstybės sienos apsaugos tarnyba

Šiandien

Antradienis, 21 Lapkritis 2017

Orų prognozė

Šiauliai °C
   

Orų prognozė aviacijai

[source: ADDS]
METAR
EYSA 210020Z AUTO 22002KT 9999NDV BKN021 01/01 Q1007 R14L/29//95 R14R/29//95 =
TAF
TAF EYSA 202307Z 2100/2109 VRB04KT 3000 BR BKN005 OVC010 TEMPO 2100/2106 0600 FZDZ FZFG OVC002 TEMPO 2106/2109 1600 SNRA BKN002 =
SR / SS: 06:12 / 14:15 UTC (EYSA 2017-11-21)

Paieška

Lankytojai

Mes turime 15 svečius online

tic logo lt